Terminal Aerodrome Forecast
Issued by NWS

Home | Current Version | Previous Version | Text Only | Print | Product List | Glossary On
Versions: 1 2 3 4 5 6 7 8 9 10 11 12 13 14 15 16 17 18 19 20 21 22 23 24 25 26 27 28 29 30
000
FTUS42 KRAH 010524
TAFRWI
TAF
KRWI 010524Z 0106/0206 05004KT P6SM SKC
     FM010800 VRB03KT 4SM BR BKN007
      TEMPO 0108/0112 1SM BR BKN005
     FM011400 04006KT P6SM BKN025
     FM011600 04008KT P6SM SCT035 BKN050 PROB30 0116/0122 VRB15G25KT
      2SM TSRA BKN025CB OVC035=

USA.gov is the U.S. government's official web portal to all federal, state and local government web resources and services.